createdAt,value
2019-01-16T00:01:15.536Z,32.33
2019-01-16T00:04:04.785Z,32.60
2019-01-16T00:07:02.170Z,32.80
2019-01-16T00:09:39.434Z,31.85
2019-01-16T00:12:34.467Z,31.97
2019-01-16T00:15:13.254Z,31.57
2019-01-16T00:17:54.122Z,31.62
2019-01-16T00:20:37.866Z,29.65
2019-01-16T00:23:18.532Z,31.68
2019-01-16T00:26:16.765Z,29.82
2019-01-16T00:29:05.312Z,31.97
2019-01-16T00:32:03.722Z,29.67
2019-01-16T00:34:52.960Z,29.77
2019-01-16T00:37:47.975Z,29.37
2019-01-16T00:40:37.192Z,29.10
2019-01-16T00:43:25.284Z,30.40
2019-01-16T00:46:17.301Z,28.90
2019-01-16T00:49:12.508Z,30.17
2019-01-16T00:52:00.349Z,28.23
2019-01-16T00:54:58.502Z,29.32
2019-01-16T00:57:46.512Z,28.65
2019-01-16T01:00:39.305Z,28.90
2019-01-16T01:03:37.623Z,27.75
2019-01-16T01:06:35.925Z,26.93
2019-01-16T01:09:32.279Z,27.55
2019-01-16T01:12:27.328Z,27.50
2019-01-16T01:15:22.761Z,26.37
2019-01-16T01:18:18.348Z,25.55
2019-01-16T01:21:06.131Z,26.27
2019-01-16T01:23:58.276Z,27.60
2019-01-16T01:26:46.497Z,26.33
2019-01-16T01:29:44.815Z,25.85
2019-01-16T01:32:36.903Z,25.70
2019-01-16T01:35:24.057Z,24.55
2019-01-16T01:38:22.380Z,24.12
2019-01-16T01:41:29.817Z,24.72
2019-01-16T01:44:19.075Z,24.60
2019-01-16T01:47:26.798Z,23.47
2019-01-16T01:50:13.306Z,24.30
2019-01-16T01:53:00.903Z,23.10
2019-01-16T01:55:50.153Z,23.35
2019-01-16T01:58:57.819Z,24.05
2019-01-16T02:01:45.229Z,22.82
2019-01-16T02:04:34.445Z,22.75
2019-01-16T02:07:22.208Z,22.13
2019-01-16T02:10:10.127Z,22.35
2019-01-16T02:12:59.299Z,22.27
2019-01-16T02:15:48.414Z,21.82
2019-01-16T02:18:29.505Z,21.57
2019-01-16T02:21:24.573Z,21.68
2019-01-16T02:24:12.599Z,21.30
2019-01-16T02:27:19.947Z,19.52
2019-01-16T02:30:04.665Z,19.85
2019-01-16T02:32:53.780Z,20.27
2019-01-16T02:35:48.499Z,20.17
2019-01-16T02:38:32.643Z,20.10
2019-01-16T02:41:16.597Z,20.05
2019-01-16T02:44:04.492Z,19.67
2019-01-16T02:46:48.351Z,19.17
2019-01-16T02:49:36.590Z,19.48
2019-01-16T02:52:28.828Z,18.92
2019-01-16T02:55:27.848Z,19.10
2019-01-16T02:58:29.127Z,19.00
2019-01-16T03:01:07.967Z,19.75
2019-01-16T03:03:57.087Z,17.65
2019-01-16T03:06:49.243Z,18.05
2019-01-16T03:09:41.772Z,17.15
2019-01-16T03:12:26.345Z,16.82
2019-01-16T03:15:27.674Z,16.95
2019-01-16T03:18:16.793Z,17.32
2019-01-16T03:21:04.823Z,17.65
2019-01-16T03:23:59.715Z,16.48
2019-01-16T03:26:48.072Z,16.48
2019-01-16T03:29:43.274Z,16.23
2019-01-16T03:32:34.140Z,16.07
2019-01-16T03:35:38.305Z,15.03
2019-01-16T03:38:25.703Z,16.30
2019-01-16T03:41:17.986Z,15.80
2019-01-16T03:44:02.638Z,15.70
2019-01-16T03:46:52.840Z,16.23
2019-01-16T03:49:40.770Z,15.38
2019-01-16T03:52:27.344Z,15.90
2019-01-16T03:55:13.814Z,15.15
2019-01-16T03:58:09.228Z,15.40
2019-01-16T04:01:13.720Z,15.03
2019-01-16T04:04:21.162Z,14.60
2019-01-16T04:07:12.949Z,14.90
2019-01-16T04:10:05.083Z,14.63
2019-01-16T04:12:54.298Z,14.13
2019-01-16T04:15:43.542Z,14.83
2019-01-16T04:18:31.299Z,13.98
2019-01-16T04:21:23.179Z,13.30
2019-01-16T04:24:11.549Z,13.62
2019-01-16T04:26:54.783Z,13.20
2019-01-16T04:29:42.878Z,13.93
2019-01-16T04:32:30.664Z,13.32
2019-01-16T04:35:14.135Z,12.93
2019-01-16T04:38:02.096Z,13.03
2019-01-16T04:40:54.201Z,13.05
2019-01-16T04:43:35.647Z,13.48
2019-01-16T04:46:42.872Z,12.45
2019-01-16T04:49:31.995Z,12.50
2019-01-16T04:52:23.908Z,12.60
2019-01-16T04:55:04.204Z,12.60
2019-01-16T04:57:53.411Z,11.85
2019-01-16T05:00:48.326Z,11.85
2019-01-16T05:03:40.474Z,12.25
2019-01-16T05:06:42.386Z,11.95
2019-01-16T05:09:34.622Z,11.00
2019-01-16T05:12:32.809Z,11.93
2019-01-16T05:15:24.691Z,11.73
2019-01-16T05:18:16.564Z,10.55
2019-01-16T05:21:15.065Z,12.47
2019-01-16T05:24:07.323Z,11.70
2019-01-16T05:26:51.406Z,11.83
2019-01-16T05:29:37.190Z,13.22
2019-01-16T05:32:29.375Z,14.70
2019-01-16T05:35:17.555Z,18.57
2019-01-16T05:38:01.908Z,19.23
2019-01-16T05:41:00.339Z,28.02
2019-01-16T05:46:47.547Z,30.82
2019-01-16T05:51:04.365Z,34.80
2019-01-16T05:53:53.505Z,32.50
2019-01-16T05:57:01.104Z,30.88
2019-01-16T05:59:51.833Z,39.18
2019-01-16T06:02:46.726Z,37.00
2019-01-16T06:05:39.101Z,36.08
2019-01-16T06:08:17.787Z,40.73
2019-01-16T06:11:05.656Z,45.75
2019-01-16T06:13:47.691Z,40.28
2019-01-16T06:16:31.028Z,41.45
2019-01-16T06:19:18.134Z,41.50
2019-01-16T06:22:10.367Z,47.80
2019-01-16T06:25:02.558Z,46.83
2019-01-16T06:27:55.880Z,44.35
2019-01-16T06:30:57.312Z,47.50
2019-01-16T06:33:46.500Z,48.23
2019-01-16T06:36:34.501Z,47.08
2019-01-16T06:39:29.463Z,48.75
2019-01-16T06:42:27.699Z,56.00
2019-01-16T06:45:16.813Z,49.85
2019-01-16T06:48:08.815Z,55.35
2019-01-16T06:50:57.022Z,55.23
2019-01-16T06:53:40.873Z,66.02
2019-01-16T06:56:38.903Z,67.10
2019-01-16T06:59:15.407Z,67.47
2019-01-16T07:02:10.610Z,65.10
2019-01-16T07:05:14.832Z,70.28
2019-01-16T07:08:03.948Z,71.70
2019-01-16T07:10:52.534Z,71.87
2019-01-16T07:13:57.085Z,72.17
2019-01-16T07:16:46.226Z,72.75
2019-01-16T07:19:45.121Z,71.02
2019-01-16T07:22:52.483Z,72.12
2019-01-16T07:25:47.476Z,69.25
2019-01-16T07:28:35.151Z,68.87
2019-01-16T07:31:17.857Z,66.42
2019-01-16T07:33:56.371Z,67.25
2019-01-16T07:36:40.722Z,65.87
2019-01-16T07:39:35.916Z,64.58
2019-01-16T07:42:23.656Z,64.27
2019-01-16T07:45:11.718Z,64.05
2019-01-16T07:48:09.952Z,61.20
2019-01-16T07:50:52.067Z,56.60
2019-01-16T07:53:53.371Z,56.00
2019-01-16T07:56:42.324Z,58.68
2019-01-16T07:59:35.222Z,45.08
2019-01-16T08:02:27.196Z,38.67
2019-01-16T08:05:31.712Z,38.05
2019-01-16T08:08:19.397Z,39.80
2019-01-16T08:11:07.208Z,44.55
2019-01-16T08:14:08.760Z,45.43
2019-01-16T08:16:56.592Z,44.77
2019-01-16T08:19:44.435Z,44.50
2019-01-16T08:22:33.581Z,42.70
2019-01-16T08:25:31.794Z,43.90
2019-01-16T08:28:20.918Z,42.20
2019-01-16T08:31:22.318Z,41.23
2019-01-16T08:34:21.609Z,39.45
2019-01-16T08:37:19.652Z,36.30
2019-01-16T08:40:07.372Z,31.45
2019-01-16T08:42:56.936Z,31.57
2019-01-16T08:45:46.061Z,30.17
2019-01-16T08:48:33.843Z,29.40
2019-01-16T08:51:32.735Z,30.52
2019-01-16T08:54:20.779Z,31.82
2019-01-16T08:57:08.812Z,31.80
2019-01-16T09:00:03.730Z,32.45
2019-01-16T09:02:54.463Z,29.52
2019-01-16T09:05:35.531Z,36.28
2019-01-16T09:08:23.419Z,51.90
2019-01-16T09:11:11.388Z,64.42
2019-01-16T09:14:03.633Z,64.50
2019-01-16T09:16:55.600Z,54.90
2019-01-16T09:19:44.723Z,51.75
2019-01-16T09:22:36.933Z,46.77
2019-01-16T09:25:41.139Z,44.23
2019-01-16T09:28:27.207Z,46.45
2019-01-16T09:31:15.397Z,44.53
2019-01-16T09:34:13.561Z,40.85
2019-01-16T09:37:21.835Z,42.85
2019-01-16T09:40:23.049Z,41.83
2019-01-16T09:43:27.189Z,40.03
2019-01-16T09:46:19.072Z,39.55
2019-01-16T09:49:12.437Z,37.42
2019-01-16T09:52:16.905Z,37.55
2019-01-16T09:55:03.264Z,37.38
2019-01-16T09:57:51.497Z,31.80
2019-01-16T10:00:52.604Z,43.90
2019-01-16T10:03:47.757Z,57.48
2019-01-16T10:06:39.666Z,49.67
2019-01-16T10:09:27.327Z,46.20
2019-01-16T10:12:34.986Z,44.88
2019-01-16T10:15:24.135Z,42.90
2019-01-16T10:18:11.639Z,42.17
2019-01-16T10:20:55.867Z,43.65
2019-01-16T10:23:44.105Z,43.02
2019-01-16T10:26:48.275Z,43.25
2019-01-16T10:29:49.887Z,42.95
2019-01-16T10:32:37.707Z,41.30
2019-01-16T10:35:25.568Z,40.43
2019-01-16T10:38:09.047Z,39.15
2019-01-16T10:41:13.528Z,39.50
2019-01-16T10:44:08.307Z,38.60
2019-01-16T10:47:03.228Z,39.15
2019-01-16T10:49:58.417Z,38.85
2019-01-16T10:52:46.511Z,37.35
2019-01-16T10:55:35.632Z,38.40
2019-01-16T10:58:23.539Z,36.70
2019-01-16T11:01:12.669Z,36.80
2019-01-16T11:04:00.596Z,36.10
2019-01-16T11:06:48.579Z,31.45
2019-01-16T11:09:45.178Z,27.82
2019-01-16T11:12:43.333Z,31.27
2019-01-16T11:15:27.892Z,30.23
2019-01-16T11:18:23.011Z,27.80
2019-01-16T11:21:12.200Z,30.05
2019-01-16T11:23:59.863Z,32.08
2019-01-16T11:27:01.067Z,33.67
2019-01-16T11:29:56.130Z,31.62
2019-01-16T11:32:43.577Z,30.30
2019-01-16T11:35:31.474Z,29.65
2019-01-16T11:38:29.699Z,28.90
2019-01-16T11:41:15.057Z,27.77
2019-01-16T11:44:02.858Z,26.90
2019-01-16T11:46:51.995Z,26.02
2019-01-16T11:49:47.232Z,27.27
2019-01-16T11:52:36.345Z,27.07
2019-01-16T11:55:28.392Z,25.48
2019-01-16T11:58:10.032Z,24.95
2019-01-16T12:00:58.443Z,24.90
2019-01-16T12:03:47.037Z,24.63
2019-01-16T12:06:45.301Z,24.05
2019-01-16T12:09:39.599Z,24.07
2019-01-16T12:12:31.965Z,23.50
2019-01-16T12:15:20.190Z,23.98
2019-01-16T12:18:20.092Z,23.38
2019-01-16T12:21:08.094Z,22.75
2019-01-16T12:24:00.186Z,24.27
2019-01-16T12:26:52.285Z,35.10
2019-01-16T12:29:44.403Z,45.78
2019-01-16T12:32:27.170Z,48.78
2019-01-16T12:35:14.851Z,37.40
2019-01-16T12:38:04.048Z,34.60
2019-01-16T12:40:51.984Z,34.00
2019-01-16T12:43:44.129Z,33.18
2019-01-16T12:46:33.316Z,36.28
2019-01-16T12:49:21.236Z,36.35
2019-01-16T12:52:10.361Z,34.05
2019-01-16T12:55:08.751Z,34.98
2019-01-16T12:58:00.637Z,34.83
2019-01-16T13:00:52.542Z,34.65
2019-01-16T13:03:37.582Z,34.15
2019-01-16T13:06:29.482Z,33.02
2019-01-16T13:09:17.515Z,33.98
2019-01-16T13:12:09.936Z,35.00
2019-01-16T13:14:52.074Z,32.93
2019-01-16T13:17:39.959Z,33.15
2019-01-16T13:20:29.820Z,32.78
2019-01-16T13:23:18.947Z,32.88
2019-01-16T13:26:06.649Z,33.00
2019-01-16T13:28:58.834Z,32.98
2019-01-16T13:31:47.961Z,31.70
2019-01-16T13:34:32.225Z,32.98
2019-01-16T13:37:16.780Z,32.60
2019-01-16T13:40:09.008Z,32.65
2019-01-16T13:43:08.032Z,32.48
2019-01-16T13:46:12.234Z,30.88
2019-01-16T13:49:07.317Z,30.75
2019-01-16T13:51:55.034Z,30.50
2019-01-16T13:54:45.876Z,31.62
2019-01-16T13:57:35.001Z,30.50
2019-01-16T14:00:27.800Z,30.48
2019-01-16T14:03:15.103Z,30.52
2019-01-16T14:06:03.250Z,32.00
2019-01-16T14:08:43.492Z,29.18
2019-01-16T14:11:35.668Z,29.85
2019-01-16T14:14:43.227Z,29.23
2019-01-16T14:17:35.202Z,28.92
2019-01-16T14:20:16.695Z,28.57
2019-01-16T14:23:05.829Z,30.00
2019-01-16T14:26:10.069Z,29.85
2019-01-16T14:28:48.221Z,28.40
2019-01-16T14:31:52.450Z,28.60
2019-01-16T14:34:40.292Z,28.25
2019-01-16T14:37:47.606Z,29.52
2019-01-16T14:40:42.990Z,27.52
2019-01-16T14:43:31.310Z,26.65
2019-01-16T14:46:20.485Z,27.98
2019-01-16T14:49:01.015Z,25.45
2019-01-16T14:51:52.349Z,27.20
2019-01-16T14:54:44.753Z,25.65
2019-01-16T14:57:32.891Z,26.37
2019-01-16T15:00:20.655Z,28.95
2019-01-16T15:03:23.446Z,25.92
2019-01-16T15:06:12.264Z,24.45
2019-01-16T15:09:01.387Z,23.80
2019-01-16T15:11:50.400Z,24.20
2019-01-16T15:14:45.583Z,24.37
2019-01-16T15:17:52.951Z,23.87
2019-01-16T15:20:32.558Z,24.57
2019-01-16T15:23:15.784Z,24.10
2019-01-16T15:26:02.267Z,24.87
2019-01-16T15:28:50.465Z,24.27
2019-01-16T15:31:39.616Z,24.70
2019-01-16T15:34:27.678Z,24.45
2019-01-16T15:37:15.740Z,23.80
2019-01-16T15:40:11.378Z,23.95
2019-01-16T15:43:06.462Z,23.65
2019-01-16T15:46:07.625Z,23.77
2019-01-16T15:49:15.163Z,24.18
2019-01-16T15:52:01.727Z,22.77
2019-01-16T15:54:51.072Z,22.98
2019-01-16T15:57:38.725Z,23.18
2019-01-16T16:00:24.809Z,22.85
2019-01-16T16:03:14.174Z,22.95
2019-01-16T16:06:09.557Z,22.17
2019-01-16T16:09:01.564Z,22.50
2019-01-16T16:11:55.867Z,22.35
2019-01-16T16:14:44.276Z,22.77
2019-01-16T16:17:51.951Z,33.88
2019-01-16T16:20:43.825Z,35.15
2019-01-16T16:23:30.279Z,32.42
2019-01-16T16:26:18.434Z,27.65
2019-01-16T16:29:06.115Z,27.25
2019-01-16T16:31:54.140Z,24.77
2019-01-16T16:34:48.819Z,25.75
2019-01-16T16:37:36.537Z,25.57
2019-01-16T16:40:26.215Z,24.55
2019-01-16T16:43:15.423Z,24.32
2019-01-16T16:46:04.593Z,24.63
2019-01-16T16:48:53.711Z,23.95
2019-01-16T16:51:45.625Z,23.95
2019-01-16T16:54:37.794Z,24.07
2019-01-16T16:57:27.007Z,23.25
2019-01-16T17:00:21.185Z,24.27
2019-01-16T17:03:13.312Z,22.30
2019-01-16T17:06:08.252Z,23.35
2019-01-16T17:08:52.152Z,23.38
2019-01-16T17:11:50.457Z,23.20
2019-01-16T17:14:45.823Z,23.18
2019-01-16T17:17:33.723Z,22.22
2019-01-16T17:20:13.517Z,23.15
2019-01-16T17:23:01.295Z,22.65
2019-01-16T17:25:50.425Z,21.70
2019-01-16T17:28:45.540Z,22.87
2019-01-16T17:31:37.490Z,24.15
2019-01-16T17:34:25.406Z,22.65
2019-01-16T17:37:13.200Z,37.05
2019-01-16T17:40:02.405Z,49.90
2019-01-16T17:42:54.332Z,48.17
2019-01-16T17:45:42.069Z,48.68
2019-01-16T17:48:35.497Z,48.05
2019-01-16T17:51:24.626Z,43.45
2019-01-16T17:54:19.764Z,40.63
2019-01-16T17:57:17.835Z,39.73
2019-01-16T18:00:25.633Z,38.20
2019-01-16T18:03:14.774Z,44.45
2019-01-16T18:06:06.160Z,51.95
2019-01-16T18:09:01.215Z,55.03
2019-01-16T18:11:54.711Z,66.28
2019-01-16T18:14:37.116Z,63.05
2019-01-16T18:17:44.368Z,49.95
2019-01-16T18:20:32.853Z,51.25
2019-01-16T18:23:22.946Z,49.30
2019-01-16T18:26:17.992Z,53.45
2019-01-16T18:29:16.249Z,68.42
2019-01-16T18:32:03.977Z,62.88
2019-01-16T18:34:56.226Z,52.95
2019-01-16T18:38:00.558Z,41.75
2019-01-16T18:40:55.665Z,43.60
2019-01-16T18:43:45.825Z,70.57
2019-01-16T18:46:33.728Z,81.82
2019-01-16T18:49:09.654Z,68.30
2019-01-16T18:52:04.963Z,61.35
2019-01-16T18:54:56.101Z,57.15
2019-01-16T18:57:38.343Z,54.67
2019-01-16T19:00:35.788Z,51.30
2019-01-16T19:03:26.508Z,52.62
2019-01-16T19:06:15.765Z,54.30
2019-01-16T19:09:04.936Z,57.50
2019-01-16T19:11:54.593Z,55.00
2019-01-16T19:14:55.962Z,56.28
2019-01-16T19:17:44.424Z,57.17
2019-01-16T19:20:34.023Z,54.70
2019-01-16T19:23:31.360Z,57.35
2019-01-16T19:26:20.499Z,54.30
2019-01-16T19:29:24.895Z,53.70
2019-01-16T19:32:16.864Z,51.40
2019-01-16T19:35:06.092Z,51.37
2019-01-16T19:37:58.236Z,49.95
2019-01-16T19:40:47.446Z,49.95
2019-01-16T19:43:51.919Z,51.35
2019-01-16T19:46:32.771Z,50.60
2019-01-16T19:49:27.848Z,49.25
2019-01-16T19:52:07.942Z,52.08
2019-01-16T19:55:15.628Z,49.45
2019-01-16T19:58:03.524Z,51.70
2019-01-16T20:00:51.304Z,51.63
2019-01-16T20:03:58.655Z,52.10
2019-01-16T20:06:40.283Z,56.20
2019-01-16T20:09:38.743Z,66.15
2019-01-16T20:12:43.004Z,57.27
2019-01-16T20:15:35.013Z,58.83
2019-01-16T20:18:23.287Z,56.77
2019-01-16T20:21:21.724Z,58.42
2019-01-16T20:24:14.011Z,58.05
2019-01-16T20:27:02.103Z,59.20
2019-01-16T20:29:54.256Z,54.93
2019-01-16T20:32:49.540Z,55.28
2019-01-16T20:35:39.033Z,58.02
2019-01-16T20:38:22.382Z,61.08
2019-01-16T20:41:17.348Z,70.10
2019-01-16T20:44:06.590Z,67.15
2019-01-16T20:46:57.023Z,69.50
2019-01-16T20:49:52.070Z,73.40
2019-01-16T20:52:44.290Z,77.70
2019-01-16T20:55:32.187Z,79.22
2019-01-16T20:58:23.166Z,79.37
2019-01-16T21:01:15.388Z,80.07
2019-01-16T21:04:06.914Z,80.80
2019-01-16T21:06:58.849Z,78.30
2019-01-16T21:10:03.219Z,72.22
2019-01-16T21:12:53.483Z,76.17
2019-01-16T21:15:39.519Z,81.70
2019-01-16T21:18:34.506Z,82.40
2019-01-16T21:21:32.056Z,85.50
2019-01-16T21:24:27.080Z,87.47
2019-01-16T21:27:22.099Z,86.90
2019-01-16T21:30:09.100Z,87.00
2019-01-16T21:32:58.007Z,90.35
2019-01-16T21:35:46.749Z,94.30
2019-01-16T21:38:23.407Z,91.82
2019-01-16T21:41:11.494Z,98.25
2019-01-16T21:44:15.843Z,103.42
2019-01-16T21:47:10.997Z,107.20
2019-01-16T21:50:03.070Z,102.65
2019-01-16T21:53:01.530Z,99.17
2019-01-16T21:55:53.522Z,99.25
2019-01-16T21:58:55.081Z,99.13
2019-01-16T22:01:50.312Z,98.20
2019-01-16T22:04:39.477Z,94.95
2019-01-16T22:07:35.057Z,95.25
2019-01-16T22:10:37.572Z,101.27
2019-01-16T22:13:26.735Z,105.72
2019-01-16T22:16:16.143Z,112.35
2019-01-16T22:19:11.433Z,111.75
2019-01-16T22:22:06.519Z,112.75
2019-01-16T22:24:54.342Z,94.67
2019-01-16T22:27:42.250Z,94.25
2019-01-16T22:30:32.400Z,92.88
2019-01-16T22:33:08.740Z,96.50
2019-01-16T22:35:54.772Z,97.37
2019-01-16T22:38:46.947Z,99.62
2019-01-16T22:41:31.981Z,97.55
2019-01-16T22:44:20.031Z,92.40
2019-01-16T22:47:04.148Z,94.10
2019-01-16T22:49:51.863Z,93.47
2019-01-16T22:52:39.999Z,94.67
2019-01-16T22:55:27.841Z,93.58
2019-01-16T22:58:09.652Z,93.35
2019-01-16T23:01:19.604Z,92.22
2019-01-16T23:04:15.066Z,88.35
2019-01-16T23:06:55.207Z,87.57
2019-01-16T23:09:59.467Z,88.52
2019-01-16T23:13:06.818Z,91.05
2019-01-16T23:15:58.827Z,86.45
2019-01-16T23:18:37.384Z,91.05
2019-01-16T23:21:35.558Z,87.92
2019-01-16T23:24:30.781Z,86.22
2019-01-16T23:27:13.554Z,87.70
2019-01-16T23:30:12.887Z,85.87
2019-01-16T23:32:51.789Z,84.50
2019-01-16T23:35:50.065Z,83.78
2019-01-16T23:38:48.279Z,82.05
2019-01-16T23:41:34.660Z,83.78
2019-01-16T23:44:22.806Z,81.30
2019-01-16T23:47:12.784Z,81.45
2019-01-16T23:50:04.673Z,82.12
2019-01-16T23:52:56.965Z,78.42
2019-01-16T23:55:51.926Z,79.50
2019-01-16T23:58:39.840Z,79.25
